»·PEaware :: AAL313 KPHX-KLAS

AAL313 :: KPHX-KLAS

FLIGHT INFORMATION

Flight Status: Arrived
Operator:
American Airlines
More flights by this operator :: More flights under this callsign
Pilot: Jamyson D. (13674)
Aircraft: BOEING 737-800
(B738)
More flights by this aircraft type
Origin: KPHX Phoenix Sky Harbor Intl
United States
Destination: KLAS McCarran Intl
United States
More flights between these airports :: More routes between these airports
Route: ZEPER1 SISIE IGM TYSSN5
File this flight plan on PilotEdge
Remarks:
Altitude:
(Current/Filed)
34,000ft
Speed:
(Current/Filed)
447kts
Departed: 13-Sep-18 09:10 PM
Arrived: 13-Sep-18 09:53 PM
Distance/Time
Traveled:
221nm/0:43
Distance/Time
To Go:
Arrived

Flight Plot

Page will automatically refresh every two minutes.

Flight plan parsing failed; only flown route is shown


Map Options




Map Legend


Flown Route
Filed Route
Departure Airport
Arrival Airport
Navaid (VOR, NDB)
Fix

Horizontal Profiles

Position Reports

Time Latitude Longitude Heading Altitude Ground
Speed
13-Sep-18 20:59 33.438316 -111.996600 209 1116ft 0kts
13-Sep-18 21:00 33.438316 -111.996600 209 1116ft 0kts
13-Sep-18 21:01 33.438316 -111.996600 209 1116ft 0kts
13-Sep-18 21:02 33.438316 -111.996600 209 1116ft 0kts
13-Sep-18 21:03 33.438316 -111.996600 209 1116ft 0kts
13-Sep-18 21:04 33.438316 -111.996600 209 1116ft 0kts
13-Sep-18 21:05 33.438316 -111.996600 209 1116ft 0kts
13-Sep-18 21:06 33.438316 -111.996600 209 1116ft 0kts
13-Sep-18 21:07 33.438695 -111.996365 185 1116ft 2kts
13-Sep-18 21:08 33.439052 -111.996794 89 1116ft 0kts
13-Sep-18 21:09 33.439052 -111.996794 89 1116ft 0kts
13-Sep-18 21:10 33.439038 -111.993667 90 1116ft 23kts
13-Sep-18 21:11 33.440745 -111.992294 327 1116ft 8kts
13-Sep-18 21:12 33.440797 -112.013338 268 1120ft 162kts
13-Sep-18 21:13 33.442155 -112.081992 276 3274ft 199kts
13-Sep-18 21:14 33.445566 -112.137083 271 4708ft 222kts
13-Sep-18 21:15 33.478200 -112.198720 352 6242ft 259kts
13-Sep-18 21:16 33.552273 -112.199382 354 8749ft 290kts
13-Sep-18 21:17 33.636652 -112.207868 344 10731ft 333kts
13-Sep-18 21:18 33.730775 -112.237705 342 12967ft 360kts
13-Sep-18 21:19 33.828464 -112.269358 342 15464ft 372kts
13-Sep-18 21:20 33.929538 -112.302154 342 17781ft 383kts
13-Sep-18 21:21 34.031959 -112.340266 325 19909ft 389kts
13-Sep-18 21:22 34.116185 -112.422372 317 20833ft 412kts
13-Sep-18 21:23 34.200598 -112.507634 317 23444ft 402kts
13-Sep-18 21:24 34.286949 -112.594946 317 25189ft 410kts
13-Sep-18 21:25 34.374819 -112.684011 317 26766ft 419kts
13-Sep-18 21:26 34.464668 -112.775333 317 28223ft 428kts
13-Sep-18 21:27 34.556182 -112.868600 317 29578ft 436kts
13-Sep-18 21:28 34.646178 -112.965321 315 30831ft 443kts
13-Sep-18 21:29 34.737549 -113.065451 315 32026ft 449kts
13-Sep-18 21:30 34.830971 -113.168074 315 33131ft 456kts
13-Sep-18 21:31 34.921790 -113.268065 314 34074ft 455kts
13-Sep-18 21:32 35.003516 -113.375307 296 34087ft 431kts
13-Sep-18 21:33 35.062982 -113.503787 295 34072ft 439kts
13-Sep-18 21:34 35.122075 -113.631866 295 31520ft 441kts
13-Sep-18 21:35 35.174475 -113.745589 295 28885ft 431kts
13-Sep-18 21:36 35.232040 -113.870828 295 26136ft 417kts
13-Sep-18 21:37 35.305790 -113.977643 318 23210ft 420kts
13-Sep-18 21:38 35.397020 -114.062082 319 20726ft 403kts
13-Sep-18 21:39 35.484489 -114.143263 319 18413ft 387kts
13-Sep-18 21:40 35.568206 -114.221122 319 16380ft 378kts
13-Sep-18 21:41 35.651026 -114.298423 320 14327ft 369kts
13-Sep-18 21:42 35.730813 -114.373102 320 12338ft 355kts
13-Sep-18 21:43 35.815722 -114.419566 337 11528ft 315kts
13-Sep-18 21:44 35.895614 -114.456262 337 10992ft 306kts
13-Sep-18 21:45 35.973760 -114.492559 337 10454ft 288kts
13-Sep-18 21:46 36.036697 -114.539069 298 9877ft 255kts
13-Sep-18 21:47 36.055464 -114.620337 280 9066ft 243kts
13-Sep-18 21:48 36.069161 -114.700363 280 8289ft 237kts
13-Sep-18 21:49 36.073288 -114.778677 270 7341ft 227kts
13-Sep-18 21:50 36.073387 -114.859079 269 6400ft 237kts
13-Sep-18 21:51 36.073511 -114.936322 269 5216ft 207kts
13-Sep-18 21:52 36.073623 -115.002136 269 4128ft 176kts
13-Sep-18 21:53 36.073506 -115.062442 268 3325ft 175kts
13-Sep-18 21:54 36.073687 -115.119855 267 2276ft 168kts
13-Sep-18 21:55 36.074592 -115.154797 303 2119ft 16kts
13-Sep-18 21:56 36.078018 -115.156574 88 2119ft 30kts
13-Sep-18 21:57 36.077631 -115.145591 92 2119ft 25kts
13-Sep-18 21:58 36.080216 -115.141689 80 2119ft 13kts
13-Sep-18 21:59 36.080226 -115.140633 90 2119ft 0kts
13-Sep-18 22:00 36.080226 -115.140633 90 2119ft 0kts
13-Sep-18 22:01 36.080226 -115.140633 90 2119ft 0kts
13-Sep-18 22:02 36.080226 -115.140633 90 2119ft 0kts
13-Sep-18 22:03 36.080226 -115.140633 90 2119ft 0kts
13-Sep-18 22:04 36.080226 -115.140633 90 2119ft 0kts
13-Sep-18 22:05 36.080226 -115.140633 90 2119ft 0kts
13-Sep-18 22:06 36.080226 -115.140633 90 2119ft 0kts
13-Sep-18 22:07 36.080226 -115.140633 90 2119ft 0kts

Navigation Log

Ident Type
Flight plan parsing failed, navigation log unavailable